createdAt,value
2016-11-19T00:01:03.904Z,1.75
2016-11-19T00:02:12.598Z,1.76
2016-11-19T00:03:21.285Z,1.7
2016-11-19T00:04:29.986Z,1.71
2016-11-19T00:05:38.672Z,1.93
2016-11-19T00:06:47.363Z,1.93
2016-11-19T00:07:56.053Z,1.89
2016-11-19T00:09:04.743Z,1.98
2016-11-19T00:10:13.433Z,1.95
2016-11-19T00:11:22.122Z,2
2016-11-19T00:12:30.813Z,2.04
2016-11-19T00:13:39.501Z,1.92
2016-11-19T00:14:48.189Z,1.86
2016-11-19T00:15:56.883Z,1.84
2016-11-19T00:17:05.567Z,1.84
2016-11-19T00:18:14.266Z,1.78
2016-11-19T00:19:22.955Z,1.74
2016-11-19T00:20:31.656Z,1.74
2016-11-19T00:21:40.383Z,1.7
2016-11-19T00:22:49.073Z,1.61
2016-11-19T00:23:57.756Z,1.67
2016-11-19T00:25:06.445Z,1.57
2016-11-19T00:26:15.149Z,1.52
2016-11-19T00:27:23.838Z,1.48
2016-11-19T00:28:32.529Z,1.39
2016-11-19T00:29:41.214Z,1.31
2016-11-19T00:30:49.899Z,1.39
2016-11-19T00:31:58.590Z,1.32
2016-11-19T00:33:07.284Z,1.36
2016-11-19T00:34:15.975Z,1.38
2016-11-19T00:35:24.662Z,1.38
2016-11-19T00:36:33.345Z,1.38
2016-11-19T00:37:42.038Z,1.38
2016-11-19T00:38:50.731Z,1.3
2016-11-19T00:39:59.425Z,1.28
2016-11-19T00:41:08.106Z,1.31
2016-11-19T00:42:16.800Z,1.3
2016-11-19T00:43:25.528Z,1.39
2016-11-19T00:44:34.226Z,1.39
2016-11-19T00:45:42.920Z,1.31
2016-11-19T00:46:51.605Z,1.34
2016-11-19T00:48:00.295Z,1.3
2016-11-19T00:49:08.979Z,1.38
2016-11-19T00:50:17.980Z,1.34
2016-11-19T00:51:26.680Z,1.32
2016-11-19T00:52:35.412Z,1.36
2016-11-19T00:53:44.100Z,1.38
2016-11-19T00:54:52.793Z,1.32
2016-11-19T00:56:01.476Z,1.34
2016-11-19T00:57:10.485Z,1.32
2016-11-19T00:58:19.178Z,1.43
2016-11-19T00:59:27.866Z,1.4
2016-11-19T01:00:36.559Z,1.32
2016-11-19T01:01:45.254Z,1.38
2016-11-19T01:02:53.942Z,1.38
2016-11-19T01:04:02.942Z,1.39
2016-11-19T01:05:11.957Z,1.39
2016-11-19T01:06:20.642Z,1.32
2016-11-19T01:07:29.330Z,1.32
2016-11-19T01:08:38.017Z,1.4
2016-11-19T01:09:46.707Z,1.34
2016-11-19T01:10:55.396Z,1.39
2016-11-19T01:12:04.085Z,1.57
2016-11-19T01:13:12.780Z,1.49
2016-11-19T01:14:21.472Z,1.39
2016-11-19T01:15:30.157Z,1.24
2016-11-19T01:16:38.843Z,1.27
2016-11-19T01:17:47.531Z,1.18
2016-11-19T01:18:56.216Z,1.18
2016-11-19T01:20:04.909Z,1.28
2016-11-19T01:21:13.595Z,1.25
2016-11-19T01:22:22.307Z,1.22
2016-11-19T01:23:30.993Z,1.22
2016-11-19T01:24:39.684Z,1.18
2016-11-19T01:25:48.375Z,1.22
2016-11-19T01:26:57.068Z,1.1
2016-11-19T01:28:05.757Z,1.2
2016-11-19T01:29:14.449Z,1.1
2016-11-19T01:30:23.133Z,1.09
2016-11-19T01:31:31.857Z,1.02
2016-11-19T01:32:40.866Z,0.99
2016-11-19T01:33:49.555Z,0.91
2016-11-19T01:34:58.238Z,0.85
2016-11-19T01:36:06.926Z,0.81
2016-11-19T01:37:15.610Z,0.78
2016-11-19T01:38:24.300Z,0.71
2016-11-19T01:39:32.990Z,0.74
2016-11-19T01:40:41.679Z,0.74
2016-11-19T01:41:50.405Z,0.7
2016-11-19T01:42:59.092Z,0.77
2016-11-19T01:44:07.780Z,0.7
2016-11-19T01:45:16.465Z,0.71
2016-11-19T01:46:25.151Z,0.7
2016-11-19T01:47:33.882Z,0.58
2016-11-19T01:48:42.695Z,0.59
2016-11-19T01:49:51.379Z,0.55
2016-11-19T01:51:00.063Z,0.47
2016-11-19T01:52:08.770Z,0.45
2016-11-19T01:53:17.459Z,0.4
2016-11-19T01:54:26.146Z,0.33
2016-11-19T01:55:34.834Z,0.39
2016-11-19T01:56:43.526Z,0.4
2016-11-19T01:57:52.226Z,0.37
2016-11-19T01:59:00.915Z,0.33
2016-11-19T02:00:09.659Z,0.34
2016-11-19T02:01:18.351Z,0.3
2016-11-19T02:02:27.036Z,0.18
2016-11-19T02:03:35.728Z,0.19
2016-11-19T02:04:44.729Z,0.11
2016-11-19T02:05:53.419Z,0.09
2016-11-19T02:07:02.102Z,0.05
2016-11-19T02:08:10.794Z,0.09
2016-11-19T02:09:19.509Z,0.05
2016-11-19T02:10:28.195Z,0.12
2016-11-19T02:11:36.881Z,-0.02
2016-11-19T02:12:45.579Z,0.02
2016-11-19T02:13:54.272Z,-0.03
2016-11-19T02:15:02.991Z,-0.07
2016-11-19T02:16:11.683Z,0.06
2016-11-19T02:17:20.374Z,0
2016-11-19T02:18:29.059Z,-0.02
2016-11-19T02:19:37.755Z,0.08
2016-11-19T02:20:46.449Z,0.09
2016-11-19T02:21:55.137Z,-0.03
2016-11-19T02:23:04.125Z,-0.07
2016-11-19T02:24:12.819Z,0.06
2016-11-19T02:25:21.512Z,0.05
2016-11-19T02:26:30.200Z,-0.05
2016-11-19T02:27:38.891Z,0.01
2016-11-19T02:28:47.583Z,-0.02
2016-11-19T02:29:56.583Z,0.01
2016-11-19T02:31:05.275Z,-0.03
2016-11-19T02:32:13.963Z,0
2016-11-19T02:33:22.649Z,0.08
2016-11-19T02:34:31.336Z,0.06
2016-11-19T02:35:40.027Z,0.11
2016-11-19T02:36:48.716Z,0.09
2016-11-19T02:37:57.407Z,0
2016-11-19T02:39:06.099Z,0.08
2016-11-19T02:40:14.789Z,0.05
2016-11-19T02:41:23.477Z,-0.05
2016-11-19T02:42:32.165Z,-0.1
2016-11-19T02:43:40.858Z,0
2016-11-19T02:44:49.557Z,-0.1
2016-11-19T02:45:58.245Z,0
2016-11-19T02:47:06.952Z,0.02
2016-11-19T02:48:15.640Z,0.08
2016-11-19T02:49:24.332Z,0.06
2016-11-19T02:50:33.017Z,0.11
2016-11-19T02:51:41.711Z,0.19
2016-11-19T02:52:50.400Z,0.23
2016-11-19T02:53:59.087Z,0.18
2016-11-19T02:55:07.799Z,0.23
2016-11-19T02:56:16.491Z,0.3
2016-11-19T02:57:25.182Z,0.33
2016-11-19T02:58:33.877Z,0.34
2016-11-19T02:59:42.595Z,0.33
2016-11-19T03:00:51.282Z,0.34
2016-11-19T03:02:00.004Z,0.3
2016-11-19T03:03:08.736Z,0.29
2016-11-19T03:04:17.423Z,0.33
2016-11-19T03:05:26.107Z,0.39
2016-11-19T03:06:34.831Z,0.33
2016-11-19T03:07:43.523Z,0.37
2016-11-19T03:08:52.209Z,0.34
2016-11-19T03:10:00.931Z,0.39
2016-11-19T03:11:09.625Z,0.39
2016-11-19T03:12:18.307Z,0.34
2016-11-19T03:13:26.998Z,0.33
2016-11-19T03:14:35.687Z,0.34
2016-11-19T03:15:44.366Z,0.39
2016-11-19T03:16:53.053Z,0.31
2016-11-19T03:18:01.750Z,0.48
2016-11-19T03:19:10.437Z,0.48
2016-11-19T03:20:19.124Z,0.51
2016-11-19T03:21:27.813Z,0.56
2016-11-19T03:22:36.496Z,0.74
2016-11-19T03:23:45.183Z,0.68
2016-11-19T03:24:53.866Z,0.82
2016-11-19T03:26:02.557Z,0.73
2016-11-19T03:27:11.246Z,0.78
2016-11-19T03:28:19.938Z,0.86
2016-11-19T03:29:28.628Z,0.89
2016-11-19T03:30:37.314Z,0.96
2016-11-19T03:31:46.005Z,0.95
2016-11-19T03:32:54.695Z,1.03
2016-11-19T03:34:03.386Z,1.09
2016-11-19T03:35:12.077Z,1.02
2016-11-19T03:36:20.770Z,1.02
2016-11-19T03:37:29.774Z,1.03
2016-11-19T03:38:38.459Z,1.07
2016-11-19T03:39:47.146Z,1
2016-11-19T03:40:56.147Z,1.06
2016-11-19T03:42:04.836Z,1.09
2016-11-19T03:43:13.524Z,1.07
2016-11-19T03:44:22.257Z,1.09
2016-11-19T03:45:30.946Z,1.07
2016-11-19T03:46:39.644Z,1.04
2016-11-19T03:47:48.331Z,1.04
2016-11-19T03:48:57.016Z,1.09
2016-11-19T03:50:05.740Z,1.06
2016-11-19T03:51:14.428Z,1.13
2016-11-19T03:52:23.115Z,1.12
2016-11-19T03:53:31.803Z,1.14
2016-11-19T03:54:40.491Z,1.2
2016-11-19T03:55:49.509Z,1.13
2016-11-19T03:56:58.199Z,1.07
2016-11-19T03:58:06.888Z,1.07
2016-11-19T03:59:15.573Z,1.12
2016-11-19T04:00:24.259Z,1.07
2016-11-19T04:01:32.949Z,1.12
2016-11-19T04:02:41.632Z,1.14
2016-11-19T04:03:50.320Z,1.1
2016-11-19T04:04:59.061Z,1.1
2016-11-19T04:06:07.757Z,1.04
2016-11-19T04:07:16.445Z,1
2016-11-19T04:08:25.132Z,0.95
2016-11-19T04:09:33.818Z,0.81
2016-11-19T04:10:42.511Z,0.7
2016-11-19T04:11:51.195Z,0.63
2016-11-19T04:12:59.893Z,0.45
2016-11-19T04:14:08.585Z,0.39
2016-11-19T04:15:17.275Z,0.36
2016-11-19T04:16:25.963Z,0.27
2016-11-19T04:17:34.677Z,0.18
2016-11-19T04:18:43.368Z,0.27
2016-11-19T04:19:52.054Z,0.24
2016-11-19T04:21:00.745Z,0.29
2016-11-19T04:22:09.437Z,0.23
2016-11-19T04:23:18.153Z,0.09
2016-11-19T04:24:26.839Z,0.18
2016-11-19T04:25:35.539Z,0.13
2016-11-19T04:26:44.225Z,0.23
2016-11-19T04:27:52.913Z,0.29
2016-11-19T04:29:01.595Z,0.2
2016-11-19T04:30:10.288Z,0.2
2016-11-19T04:31:18.980Z,0.2
2016-11-19T04:32:27.674Z,0.31
2016-11-19T04:33:36.360Z,0.34
2016-11-19T04:34:45.045Z,0.37
2016-11-19T04:35:53.738Z,0.33
2016-11-19T04:37:02.424Z,0.33
2016-11-19T04:38:11.114Z,0.39
2016-11-19T04:39:19.803Z,0.31
2016-11-19T04:40:28.491Z,0.33
2016-11-19T04:41:37.176Z,0.29
2016-11-19T04:42:45.867Z,0.3
2016-11-19T04:43:54.562Z,0.36
2016-11-19T04:45:03.248Z,0.26
2016-11-19T04:46:11.939Z,0.3
2016-11-19T04:47:20.624Z,0.33
2016-11-19T04:48:29.348Z,0.42
2016-11-19T04:49:38.033Z,0.42
2016-11-19T04:50:46.725Z,0.37
2016-11-19T04:51:55.417Z,0.49
2016-11-19T04:53:04.105Z,0.59
2016-11-19T04:54:12.791Z,0.55
2016-11-19T04:55:21.478Z,0.45
2016-11-19T04:56:30.169Z,0.49
2016-11-19T04:57:38.879Z,0.48
2016-11-19T04:58:47.571Z,0.37
2016-11-19T04:59:56.258Z,0.29
2016-11-19T05:01:04.949Z,0.33
2016-11-19T05:02:13.642Z,0.26
2016-11-19T05:03:22.329Z,0.26
2016-11-19T05:04:31.016Z,0.06
2016-11-19T05:05:39.703Z,0.12
2016-11-19T05:06:48.385Z,0.23
2016-11-19T05:07:57.079Z,0.08
2016-11-19T05:09:05.775Z,0.09
2016-11-19T05:10:14.458Z,0.09
2016-11-19T05:11:23.174Z,0.18
2016-11-19T05:12:31.894Z,0.2
2016-11-19T05:13:40.587Z,0.24
2016-11-19T05:14:49.281Z,0.26
2016-11-19T05:15:57.973Z,0.19
2016-11-19T05:17:06.664Z,0.15
2016-11-19T05:18:15.352Z,0.09
2016-11-19T05:19:24.041Z,0.08
2016-11-19T05:20:32.732Z,0.12
2016-11-19T05:21:41.421Z,0.06
2016-11-19T05:22:50.151Z,0
2016-11-19T05:23:58.843Z,0
2016-11-19T05:25:07.561Z,0.09
2016-11-19T05:26:16.257Z,0.09
2016-11-19T05:27:24.946Z,0.05
2016-11-19T05:28:33.638Z,0.11
2016-11-19T05:29:42.329Z,0.06
2016-11-19T05:30:51.017Z,0.08
2016-11-19T05:31:59.711Z,0.08
2016-11-19T05:33:08.412Z,0.08
2016-11-19T05:34:17.101Z,0.06
2016-11-19T05:35:25.817Z,0.08
2016-11-19T05:36:34.502Z,0.12
2016-11-19T05:37:43.237Z,0.09
2016-11-19T05:38:51.926Z,0.18
2016-11-19T05:40:00.613Z,0.12
2016-11-19T05:41:09.305Z,0.09
2016-11-19T05:42:17.998Z,0.11
2016-11-19T05:43:26.687Z,0.08
2016-11-19T05:44:35.368Z,0.09
2016-11-19T05:45:44.053Z,0.01
2016-11-19T05:46:52.745Z,0.06
2016-11-19T05:48:01.432Z,0.01
2016-11-19T05:49:10.118Z,0.11
2016-11-19T05:50:18.807Z,0.13
2016-11-19T05:51:27.499Z,0.18
2016-11-19T05:52:36.187Z,0.19
2016-11-19T05:53:44.872Z,0.29
2016-11-19T05:54:53.562Z,0.4
2016-11-19T05:56:02.246Z,0.45
2016-11-19T05:57:10.939Z,0.45
2016-11-19T05:58:19.633Z,0.44
2016-11-19T05:59:28.323Z,0.51
2016-11-19T06:00:37.007Z,0.45
2016-11-19T06:01:45.702Z,0.55
2016-11-19T06:02:54.388Z,0.7
2016-11-19T06:04:03.398Z,0.78
2016-11-19T06:05:12.084Z,0.78
2016-11-19T06:06:20.770Z,0.96
2016-11-19T06:07:29.501Z,1.03
2016-11-19T06:08:38.191Z,1.04
2016-11-19T06:09:46.878Z,1
2016-11-19T06:10:55.561Z,1.06
2016-11-19T06:12:04.250Z,1.07
2016-11-19T06:13:12.969Z,1.09
2016-11-19T06:14:21.662Z,1.07
2016-11-19T06:15:30.348Z,1.1
2016-11-19T06:16:39.036Z,1.09
2016-11-19T06:17:47.725Z,1.12
2016-11-19T06:18:56.412Z,1.1
2016-11-19T06:20:05.104Z,1.07
2016-11-19T06:21:14.109Z,1.04
2016-11-19T06:22:22.803Z,1.07
2016-11-19T06:23:31.501Z,1.1
2016-11-19T06:24:40.526Z,1.1
2016-11-19T06:25:49.215Z,1.07
2016-11-19T06:26:57.900Z,1.06
2016-11-19T06:28:06.587Z,1.06
2016-11-19T06:29:15.272Z,1.09
2016-11-19T06:30:23.965Z,1.04
2016-11-19T06:31:32.689Z,1.09
2016-11-19T06:32:41.384Z,1.13
2016-11-19T06:33:50.070Z,1.09
2016-11-19T06:34:58.758Z,1.09
2016-11-19T06:36:07.469Z,1.09
2016-11-19T06:37:16.195Z,1.18
2016-11-19T06:38:24.890Z,1.18
2016-11-19T06:39:33.607Z,1.16
2016-11-19T06:40:42.297Z,1.18
2016-11-19T06:41:50.981Z,1.13
2016-11-19T06:42:59.675Z,1.18
2016-11-19T06:44:08.366Z,1.24
2016-11-19T06:45:17.051Z,1.24
2016-11-19T06:46:25.743Z,1.28
2016-11-19T06:47:34.431Z,1.22
2016-11-19T06:48:43.130Z,1.24
2016-11-19T06:49:51.823Z,1.34
2016-11-19T06:51:00.860Z,1.34
2016-11-19T06:52:09.550Z,1.32
2016-11-19T06:53:18.243Z,1.36
2016-11-19T06:54:26.929Z,1.34
2016-11-19T06:55:35.622Z,1.38
2016-11-19T06:56:44.309Z,1.32
2016-11-19T06:57:52.995Z,1.34
2016-11-19T06:59:01.681Z,1.36
2016-11-19T07:00:10.375Z,1.34
2016-11-19T07:01:19.063Z,1.36
2016-11-19T07:02:27.751Z,1.52
2016-11-19T07:03:36.444Z,1.46
2016-11-19T07:04:45.168Z,1.46
2016-11-19T07:05:53.858Z,1.45
2016-11-19T07:07:02.551Z,1.48
2016-11-19T07:08:11.234Z,1.49
2016-11-19T07:09:19.923Z,1.43
2016-11-19T07:10:28.935Z,1.49
2016-11-19T07:11:37.623Z,1.46
2016-11-19T07:12:46.309Z,1.49
2016-11-19T07:13:55.000Z,1.5
2016-11-19T07:15:03.689Z,1.56
2016-11-19T07:16:12.376Z,1.57
2016-11-19T07:17:21.062Z,1.7
2016-11-19T07:18:29.746Z,1.63
2016-11-19T07:19:38.440Z,1.67
2016-11-19T07:20:47.129Z,1.61
2016-11-19T07:21:55.813Z,1.66
2016-11-19T07:23:04.505Z,1.74
2016-11-19T07:24:13.526Z,1.78
2016-11-19T07:25:22.213Z,1.78
2016-11-19T07:26:30.910Z,1.74
2016-11-19T07:27:39.635Z,1.7
2016-11-19T07:28:48.328Z,1.7
2016-11-19T07:29:57.022Z,1.7
2016-11-19T07:31:06.025Z,1.7
2016-11-19T07:32:14.714Z,1.82
2016-11-19T07:33:23.401Z,1.88
2016-11-19T07:34:32.087Z,1.81
2016-11-19T07:35:40.802Z,1.84
2016-11-19T07:36:49.493Z,1.81
2016-11-19T07:37:58.180Z,1.89
2016-11-19T07:39:06.867Z,1.88
2016-11-19T07:40:15.559Z,1.84
2016-11-19T07:41:24.245Z,1.85
2016-11-19T07:42:32.936Z,1.88
2016-11-19T07:43:41.624Z,1.86
2016-11-19T07:44:50.314Z,1.86
2016-11-19T07:45:59.012Z,2
2016-11-19T07:47:07.737Z,1.98
2016-11-19T07:48:16.422Z,1.86
2016-11-19T07:49:25.115Z,2
2016-11-19T07:50:33.807Z,2.04
2016-11-19T07:51:42.507Z,2.16
2016-11-19T07:52:51.194Z,2.03
2016-11-19T07:53:59.879Z,2.19
2016-11-19T07:55:08.579Z,2.23
2016-11-19T07:56:17.265Z,2.32
2016-11-19T07:57:25.954Z,2.36
2016-11-19T07:58:34.644Z,2.37
2016-11-19T07:59:43.332Z,2.47
2016-11-19T08:00:52.018Z,2.58
2016-11-19T08:02:00.705Z,2.59
2016-11-19T08:03:09.399Z,2.62
2016-11-19T08:04:18.087Z,2.65
2016-11-19T08:05:26.778Z,2.64
2016-11-19T08:06:35.467Z,2.69
2016-11-19T08:07:44.155Z,2.88
2016-11-19T08:08:53.161Z,2.93
2016-11-19T08:10:01.850Z,2.98
2016-11-19T08:11:10.536Z,2.91
2016-11-19T08:12:19.229Z,2.95
2016-11-19T08:13:27.917Z,3.01
2016-11-19T08:14:36.610Z,3
2016-11-19T08:15:45.303Z,3.03
2016-11-19T08:16:54.019Z,3.08
2016-11-19T08:18:02.704Z,3.16
2016-11-19T08:19:11.391Z,3.13
2016-11-19T08:20:20.081Z,3.19
2016-11-19T08:21:28.768Z,3.26
2016-11-19T08:22:37.455Z,3.22
2016-11-19T08:23:46.142Z,3.24
2016-11-19T08:24:54.857Z,3.22
2016-11-19T08:26:03.547Z,3.27
2016-11-19T08:27:12.239Z,3.34
2016-11-19T08:28:20.940Z,3.24
2016-11-19T08:29:29.630Z,3.31
2016-11-19T08:30:38.325Z,3.16
2016-11-19T08:31:47.015Z,3.18
2016-11-19T08:32:55.708Z,3.15
2016-11-19T08:34:04.398Z,3.22
2016-11-19T08:35:13.091Z,3.16
2016-11-19T08:36:21.784Z,3.12
2016-11-19T08:37:30.476Z,3.11
2016-11-19T08:38:39.161Z,3.05
2016-11-19T08:39:47.853Z,3.09
2016-11-19T08:40:56.545Z,3.13
2016-11-19T08:42:05.235Z,3.05
2016-11-19T08:43:13.928Z,3.09
2016-11-19T08:44:22.614Z,3.06
2016-11-19T08:45:31.303Z,3.15
2016-11-19T08:46:40.336Z,3.13
2016-11-19T08:47:49.023Z,3.15
2016-11-19T08:48:58.024Z,3.22
2016-11-19T08:50:06.714Z,3.31
2016-11-19T08:51:15.400Z,3.34
2016-11-19T08:52:24.095Z,3.4
2016-11-19T08:53:32.782Z,3.41
2016-11-19T08:54:41.785Z,3.43
2016-11-19T08:55:50.470Z,3.36
2016-11-19T08:56:59.159Z,3.43
2016-11-19T08:58:07.882Z,3.36
2016-11-19T08:59:16.609Z,3.31
2016-11-19T09:00:25.302Z,3.33
2016-11-19T09:01:33.992Z,3.29
2016-11-19T09:02:42.682Z,3.29
2016-11-19T09:03:51.369Z,3.34
2016-11-19T09:05:00.058Z,3.34
2016-11-19T09:06:08.748Z,3.34
2016-11-19T09:07:17.462Z,3.19
2016-11-19T09:08:26.152Z,3.19
2016-11-19T09:09:34.848Z,3.18
2016-11-19T09:10:43.534Z,3.22
2016-11-19T09:11:52.223Z,3.18
2016-11-19T09:13:00.911Z,3.09
2016-11-19T09:14:09.601Z,3.18
2016-11-19T09:15:18.294Z,3.19
2016-11-19T09:16:27.015Z,3.13
2016-11-19T09:17:35.707Z,3.12
2016-11-19T09:18:44.398Z,3.06
2016-11-19T09:19:53.113Z,3.09
2016-11-19T09:21:02.123Z,3.03
2016-11-19T09:22:10.811Z,3.15
2016-11-19T09:23:19.524Z,3.13
2016-11-19T09:24:28.533Z,3.24
2016-11-19T09:25:37.217Z,3.27
2016-11-19T09:26:45.931Z,3.26
2016-11-19T09:27:54.622Z,3.33
2016-11-19T09:29:03.317Z,3.3
2016-11-19T09:30:12.010Z,3.4
2016-11-19T09:31:20.699Z,3.37
2016-11-19T09:32:29.389Z,3.4
2016-11-19T09:33:38.081Z,3.45
2016-11-19T09:34:46.765Z,3.61
2016-11-19T09:35:55.449Z,3.58
2016-11-19T09:37:04.471Z,3.68
2016-11-19T09:38:13.159Z,3.78
2016-11-19T09:39:21.846Z,3.77
2016-11-19T09:40:30.537Z,3.94
2016-11-19T09:41:39.230Z,3.94
2016-11-19T09:42:47.923Z,4.06
2016-11-19T09:43:56.610Z,4.06
2016-11-19T09:45:05.303Z,4.16
2016-11-19T09:46:13.992Z,4.2
2016-11-19T09:47:22.684Z,4.24
2016-11-19T09:48:31.376Z,4.24
2016-11-19T09:49:40.064Z,4.3
2016-11-19T09:50:48.755Z,4.3
2016-11-19T09:51:57.441Z,4.38
2016-11-19T09:53:06.127Z,4.49
2016-11-19T09:54:14.817Z,4.57
2016-11-19T09:55:23.502Z,4.43
2016-11-19T09:56:32.197Z,4.42
2016-11-19T09:57:40.895Z,4.53
2016-11-19T09:58:49.589Z,4.53
2016-11-19T09:59:58.284Z,4.45
2016-11-19T10:01:09.075Z,4.39
2016-11-19T10:02:17.796Z,4.3
2016-11-19T10:03:26.486Z,4.16
2016-11-19T10:04:35.179Z,4.09
2016-11-19T10:05:43.862Z,4
2016-11-19T10:06:52.648Z,3.88
2016-11-19T10:08:01.334Z,3.81
2016-11-19T10:09:10.027Z,3.78
2016-11-19T10:10:18.711Z,3.78
2016-11-19T10:11:27.405Z,3.7
2016-11-19T10:12:36.147Z,3.71
2016-11-19T10:13:44.835Z,3.63
2016-11-19T10:14:53.524Z,3.55
2016-11-19T10:16:02.244Z,3.58
2016-11-19T10:17:10.937Z,3.71
2016-11-19T10:18:19.926Z,3.73
2016-11-19T10:19:28.618Z,3.71
2016-11-19T10:20:37.311Z,3.74
2016-11-19T10:21:46.008Z,3.91
2016-11-19T10:22:54.696Z,3.86
2016-11-19T10:24:03.443Z,3.86
2016-11-19T10:25:12.450Z,3.92
2016-11-19T10:26:21.141Z,3.94
2016-11-19T10:27:29.828Z,3.86
2016-11-19T10:28:38.518Z,3.95
2016-11-19T10:29:47.270Z,3.99
2016-11-19T10:30:56.270Z,3.95
2016-11-19T10:32:04.956Z,4.02
2016-11-19T10:33:13.647Z,3.94
2016-11-19T10:34:22.339Z,3.95
2016-11-19T10:35:31.078Z,3.96
2016-11-19T10:36:39.767Z,3.96
2016-11-19T10:37:48.459Z,4.04
2016-11-19T10:38:57.151Z,4.04
2016-11-19T10:40:05.858Z,4.12
2016-11-19T10:41:14.645Z,4.2
2016-11-19T10:42:23.335Z,4.25
2016-11-19T10:43:32.019Z,4.4
2016-11-19T10:44:40.712Z,4.34
2016-11-19T10:45:49.398Z,4.45
2016-11-19T10:46:58.139Z,4.46
2016-11-19T10:48:06.826Z,4.32
2016-11-19T10:49:15.522Z,4.36
2016-11-19T10:50:24.215Z,4.3
2016-11-19T10:51:32.905Z,4.4
2016-11-19T10:52:41.670Z,4.28
2016-11-19T10:53:50.356Z,4.42
2016-11-19T10:54:59.042Z,4.45
2016-11-19T10:56:07.735Z,4.48
2016-11-19T10:57:16.420Z,4.46
2016-11-19T10:58:25.161Z,4.57
2016-11-19T10:59:33.844Z,4.58
2016-11-19T11:00:42.532Z,4.63
2016-11-19T11:01:51.226Z,4.61
2016-11-19T11:02:59.916Z,4.64
2016-11-19T11:04:08.653Z,4.82
2016-11-19T11:05:17.337Z,4.98
2016-11-19T11:06:26.059Z,4.9
2016-11-19T11:07:34.749Z,4.84
2016-11-19T11:08:43.438Z,5.02
2016-11-19T11:09:52.176Z,4.97
2016-11-19T11:11:00.864Z,5.02
2016-11-19T11:12:09.557Z,5.19
2016-11-19T11:13:18.252Z,5.31
2016-11-19T11:14:26.939Z,5.59
2016-11-19T11:15:35.678Z,5.77
2016-11-19T11:16:44.371Z,6.1
2016-11-19T11:17:53.060Z,6.32
2016-11-19T11:19:01.755Z,6.64
2016-11-19T11:20:10.471Z,6.7
2016-11-19T11:21:19.209Z,6.82
2016-11-19T11:22:27.898Z,7.03
2016-11-19T11:23:36.588Z,6.86
2016-11-19T11:24:45.280Z,6.65
2016-11-19T11:25:53.973Z,6.53
2016-11-19T11:27:02.761Z,6.34
2016-11-19T11:28:11.450Z,6.09
2016-11-19T11:29:20.143Z,6.05
2016-11-19T11:30:28.837Z,5.98
2016-11-19T11:31:37.526Z,6.01
2016-11-19T11:32:46.266Z,5.97
2016-11-19T11:33:54.955Z,6.12
2016-11-19T11:35:03.646Z,6.34
2016-11-19T11:36:12.338Z,6.82
2016-11-19T11:37:21.036Z,7.26
2016-11-19T11:38:29.781Z,7.84
2016-11-19T11:39:38.476Z,8.26
2016-11-19T11:40:47.169Z,8.69
2016-11-19T11:41:55.857Z,8.66
2016-11-19T11:43:04.551Z,8.79
2016-11-19T11:44:13.293Z,8.9
2016-11-19T11:45:21.992Z,9.05
2016-11-19T11:46:30.681Z,9.02
2016-11-19T11:47:39.376Z,8.99
2016-11-19T11:48:48.073Z,8.95
2016-11-19T11:49:56.815Z,8.75
2016-11-19T11:51:05.509Z,8.46
2016-11-19T11:52:14.207Z,8.32
2016-11-19T11:53:22.949Z,8.17
2016-11-19T11:54:31.636Z,8.36
2016-11-19T11:55:40.382Z,8.64
2016-11-19T11:56:49.072Z,8.87
2016-11-19T11:57:57.771Z,9.02
2016-11-19T11:59:06.464Z,9.27
2016-11-19T12:00:15.156Z,9.29
2016-11-19T12:01:23.897Z,9.42
2016-11-19T12:02:32.598Z,9.4
2016-11-19T12:03:41.300Z,9.66
2016-11-19T12:04:50.313Z,10.09
2016-11-19T12:05:59.037Z,10.49
2016-11-19T12:07:07.785Z,10.65
2016-11-19T12:08:16.480Z,10.05
2016-11-19T12:09:25.184Z,10.18
2016-11-19T12:10:33.878Z,10.34
2016-11-19T12:11:42.572Z,10.48
2016-11-19T12:12:51.319Z,10.75
2016-11-19T12:14:00.054Z,11.31
2016-11-19T12:15:08.748Z,11.88
2016-11-19T12:16:17.451Z,12.51
2016-11-19T12:17:26.146Z,13.09
2016-11-19T12:18:34.894Z,13.17
2016-11-19T12:19:43.595Z,13.05
2016-11-19T12:20:52.288Z,13.39
2016-11-19T12:22:00.980Z,13.95
2016-11-19T12:23:09.678Z,14.2
2016-11-19T12:24:18.427Z,14.43
2016-11-19T12:25:27.129Z,14.38
2016-11-19T12:26:35.821Z,14.96
2016-11-19T12:27:44.829Z,15.35
2016-11-19T12:28:53.527Z,15.7
2016-11-19T12:30:02.279Z,16.03
2016-11-19T12:31:10.973Z,16.1
2016-11-19T12:32:19.672Z,16.26
2016-11-19T12:33:28.379Z,16.37
2016-11-19T12:34:37.083Z,15.83
2016-11-19T12:35:46.147Z,15.22
2016-11-19T12:36:54.851Z,14.77
2016-11-19T12:38:03.549Z,14.73
2016-11-19T12:39:12.249Z,14.99
2016-11-19T12:40:20.949Z,14.92
2016-11-19T12:41:29.697Z,14.4
2016-11-19T12:42:38.392Z,13.45
2016-11-19T12:43:47.405Z,12.37
2016-11-19T12:44:56.104Z,10.77
2016-11-19T12:46:04.802Z,9.36
2016-11-19T12:47:13.553Z,8.26
2016-11-19T12:48:22.248Z,7.55
2016-11-19T12:49:30.943Z,6.87
2016-11-19T12:50:39.646Z,6.41
2016-11-19T12:51:48.368Z,6.01
2016-11-19T12:52:57.113Z,5.79
2016-11-19T12:54:05.813Z,5.62
2016-11-19T12:55:14.506Z,6.77
2016-11-19T12:56:23.202Z,8.56
2016-11-19T12:57:31.897Z,9.72
2016-11-19T12:58:40.638Z,10.23
2016-11-19T12:59:49.326Z,10.23
2016-11-19T13:00:58.037Z,10.31
2016-11-19T13:02:06.764Z,10.55
2016-11-19T13:03:15.775Z,10.28
2016-11-19T13:04:24.532Z,11.04
2016-11-19T13:05:33.224Z,11.49
2016-11-19T13:06:41.917Z,11.91
2016-11-19T13:07:50.642Z,11.63
2016-11-19T13:08:59.346Z,10.72
2016-11-19T13:10:08.121Z,9.99
2016-11-19T13:11:16.841Z,9.44
2016-11-19T13:12:25.548Z,9.16
2016-11-19T13:13:34.306Z,9
2016-11-19T13:14:43.000Z,8.96
2016-11-19T13:15:51.748Z,8.44
2016-11-19T13:17:00.440Z,7.78
2016-11-19T13:18:09.134Z,7.07
2016-11-19T13:19:17.826Z,6.5
2016-11-19T13:20:26.523Z,6.34
2016-11-19T13:21:35.269Z,6.52
2016-11-19T13:22:44.007Z,6.29
2016-11-19T13:23:52.702Z,6.2
2016-11-19T13:25:01.403Z,6.06
2016-11-19T13:26:10.409Z,5.84
2016-11-19T13:27:19.199Z,5.65
2016-11-19T13:28:27.895Z,5.49
2016-11-19T13:29:36.673Z,5.1
2016-11-19T13:30:45.376Z,4.95
2016-11-19T13:31:54.072Z,4.64
2016-11-19T13:33:02.815Z,4.5
2016-11-19T13:34:11.509Z,4.42
2016-11-19T13:35:20.197Z,4.27
2016-11-19T13:36:28.887Z,4.14
2016-11-19T13:37:37.580Z,4.1
2016-11-19T13:38:46.321Z,4.06
2016-11-19T13:39:55.015Z,4.16
2016-11-19T13:41:03.710Z,4.12
2016-11-19T13:42:12.404Z,4.1
2016-11-19T13:43:21.090Z,3.85
2016-11-19T13:44:30.158Z,3.81
2016-11-19T13:45:39.172Z,3.77
2016-11-19T13:46:47.868Z,3.61
2016-11-19T13:47:56.875Z,3.56
2016-11-19T13:49:05.587Z,3.46
2016-11-19T13:50:14.330Z,3.37
2016-11-19T13:51:23.026Z,3.15
2016-11-19T13:52:31.718Z,3.09
2016-11-19T13:53:40.409Z,3.08
2016-11-19T13:54:49.105Z,3
2016-11-19T13:55:58.479Z,2.91
2016-11-19T13:57:07.170Z,2.85
2016-11-19T13:58:15.860Z,2.77
2016-11-19T13:59:24.550Z,2.7
2016-11-19T14:00:33.244Z,2.69
2016-11-19T14:01:41.982Z,2.64
2016-11-19T14:02:50.673Z,2.51
2016-11-19T14:03:59.367Z,2.59
2016-11-19T14:05:08.099Z,2.59
2016-11-19T14:06:16.805Z,2.5
2016-11-19T14:07:25.855Z,2.46
2016-11-19T14:08:34.546Z,2.52
2016-11-19T14:09:43.232Z,2.36
2016-11-19T14:10:51.919Z,2.34
2016-11-19T14:12:00.607Z,2.19
2016-11-19T14:13:09.348Z,2.23
2016-11-19T14:14:18.043Z,2.16
2016-11-19T14:15:26.731Z,2.12
2016-11-19T14:16:35.416Z,2.05
2016-11-19T14:17:44.110Z,2.12
2016-11-19T14:18:52.849Z,2.05
2016-11-19T14:20:01.547Z,2
2016-11-19T14:21:10.236Z,2.04
2016-11-19T14:22:18.927Z,2.01
2016-11-19T14:23:27.620Z,2
2016-11-19T14:24:36.356Z,1.93
2016-11-19T14:25:45.055Z,1.93
2016-11-19T14:26:53.748Z,1.88
2016-11-19T14:28:02.442Z,1.88
2016-11-19T14:29:11.129Z,1.86
2016-11-19T14:30:19.867Z,1.84
2016-11-19T14:31:28.557Z,1.71
2016-11-19T14:32:37.245Z,1.66
2016-11-19T14:33:45.936Z,1.6
2016-11-19T14:34:54.638Z,1.57
2016-11-19T14:36:03.376Z,1.6
2016-11-19T14:37:12.087Z,1.5
2016-11-19T14:38:20.773Z,1.52
2016-11-19T14:39:30.140Z,1.57
2016-11-19T14:40:38.820Z,1.53
2016-11-19T14:41:47.562Z,1.49
2016-11-19T14:42:56.257Z,1.48
2016-11-19T14:44:04.957Z,1.5
2016-11-19T14:45:13.658Z,1.48
2016-11-19T14:46:22.661Z,1.45
2016-11-19T14:47:31.398Z,1.4
2016-11-19T14:48:40.085Z,1.32
2016-11-19T14:49:48.770Z,1.4
2016-11-19T14:50:57.462Z,1.32
2016-11-19T14:52:06.156Z,1.32
2016-11-19T14:53:14.909Z,1.25
2016-11-19T14:54:23.602Z,1.25
2016-11-19T14:55:32.308Z,1.21
2016-11-19T14:56:40.996Z,1.07
2016-11-19T14:57:49.686Z,1.12
2016-11-19T14:58:58.423Z,1.1
2016-11-19T15:00:07.111Z,0.94
2016-11-19T15:01:15.822Z,0.91
2016-11-19T15:02:24.516Z,0.82
2016-11-19T15:03:33.207Z,0.86
2016-11-19T15:04:41.993Z,0.76
2016-11-19T15:05:50.682Z,0.91
2016-11-19T15:06:59.398Z,0.95
2016-11-19T15:08:08.091Z,0.85
2016-11-19T15:09:16.807Z,0.86
2016-11-19T15:10:25.541Z,0.88
2016-11-19T15:11:34.242Z,0.86
2016-11-19T15:12:42.927Z,0.78
2016-11-19T15:13:51.610Z,0.85
2016-11-19T15:15:00.304Z,0.89
2016-11-19T15:16:09.043Z,0.95
2016-11-19T15:17:17.738Z,0.89
2016-11-19T15:18:26.423Z,0.89